sensor_id;sensor_type;location;lat;lon;timestamp;pressure;altitude;pressure_sealevel;temperature;humidity
5053;BME280;2545;50.892;5.740;2023-05-08T00:00:19;56182.69;;;-142.21;100.00
5053;BME280;2545;50.892;5.740;2023-05-08T00:02:45;56190.53;;;-142.21;100.00
5053;BME280;2545;50.892;5.740;2023-05-08T00:05:10;56178.75;;;-142.21;100.00
5053;BME280;2545;50.892;5.740;2023-05-08T00:07:36;56214.06;;;-142.21;100.00
5053;BME280;2545;50.892;5.740;2023-05-08T00:10:02;56170.91;;;-142.21;100.00
5053;BME280;2545;50.892;5.740;2023-05-08T00:12:28;56200.34;;;-142.21;100.00
5053;BME280;2545;50.892;5.740;2023-05-08T00:14:53;56192.50;;;-142.21;100.00
5053;BME280;2545;50.892;5.740;2023-05-08T00:17:19;56194.44;;;-142.21;100.00
5053;BME280;2545;50.892;5.740;2023-05-08T00:19:44;56159.16;;;-142.21;100.00
5053;BME280;2545;50.892;5.740;2023-05-08T00:22:10;56165.03;;;-142.21;100.00
5053;BME280;2545;50.892;5.740;2023-05-08T00:24:35;56243.47;;;-142.21;100.00
5053;BME280;2545;50.892;5.740;2023-05-08T00:27:00;56165.03;;;-142.21;100.00
5053;BME280;2545;50.892;5.740;2023-05-08T00:29:25;56186.59;;;-142.21;100.00
5053;BME280;2545;50.892;5.740;2023-05-08T00:31:51;56214.06;;;-142.21;100.00
5053;BME280;2545;50.892;5.740;2023-05-08T00:34:16;56174.84;;;-142.21;100.00
5053;BME280;2545;50.892;5.740;2023-05-08T00:36:42;56168.97;;;-142.21;100.00
5053;BME280;2545;50.892;5.740;2023-05-08T00:39:07;56184.66;;;-142.21;100.00
5053;BME280;2545;50.892;5.740;2023-05-08T00:41:32;56204.25;;;-142.21;100.00
5053;BME280;2545;50.892;5.740;2023-05-08T00:43:57;56190.53;;;-142.21;100.00
5053;BME280;2545;50.892;5.740;2023-05-08T00:46:23;56172.88;;;-142.21;100.00
5053;BME280;2545;50.892;5.740;2023-05-08T00:48:48;56182.69;;;-142.21;100.00
5053;BME280;2545;50.892;5.740;2023-05-08T00:51:14;56190.53;;;-142.21;100.00
5053;BME280;2545;50.892;5.740;2023-05-08T00:53:41;56192.50;;;-142.21;100.00
5053;BME280;2545;50.892;5.740;2023-05-08T00:56:13;56219.94;;;-142.21;100.00
5053;BME280;2545;50.892;5.740;2023-05-08T00:58:39;56221.91;;;-142.21;100.00
5053;BME280;2545;50.892;5.740;2023-05-08T01:01:05;56192.50;;;-142.21;100.00
5053;BME280;2545;50.892;5.740;2023-05-08T01:03:34;56196.41;;;-142.21;100.00
5053;BME280;2545;50.892;5.740;2023-05-08T01:06:03;56229.75;;;-142.21;100.00
5053;BME280;2545;50.892;5.740;2023-05-08T01:08:30;56204.25;;;-142.21;100.00
5053;BME280;2545;50.892;5.740;2023-05-08T01:11:16;56188.56;;;-142.21;100.00
5053;BME280;2545;50.892;5.740;2023-05-08T01:13:50;56182.69;;;-142.21;100.00
5053;BME280;2545;50.892;5.740;2023-05-08T01:16:22;56174.84;;;-142.21;100.00
5053;BME280;2545;50.892;5.740;2023-05-08T01:19:22;56170.91;;;-142.21;100.00
5053;BME280;2545;50.892;5.740;2023-05-08T01:32:41;56243.47;;;-142.21;100.00
5053;BME280;2545;50.892;5.740;2023-05-08T01:35:25;56245.44;;;-142.21;100.00
5053;BME280;2545;50.892;5.740;2023-05-08T01:38:07;56198.38;;;-142.21;100.00
5053;BME280;2545;50.892;5.740;2023-05-08T01:40:51;56182.69;;;-142.21;100.00
5053;BME280;2545;50.892;5.740;2023-05-08T01:45:51;56186.59;;;-142.21;100.00
5053;BME280;2545;50.892;5.740;2023-05-08T01:48:26;56180.72;;;-142.21;100.00
5053;BME280;2545;50.892;5.740;2023-05-08T01:51:07;56192.50;;;-142.21;100.00
5053;BME280;2545;50.892;5.740;2023-05-08T01:53:45;56206.22;;;-142.21;100.00
5053;BME280;2545;50.892;5.740;2023-05-08T01:56:13;56182.69;;;-142.21;100.00
5053;BME280;2545;50.892;5.740;2023-05-08T01:58:42;56221.91;;;-142.21;100.00
5053;BME280;2545;50.892;5.740;2023-05-08T02:01:09;56204.25;;;-142.21;100.00
5053;BME280;2545;50.892;5.740;2023-05-08T02:03:36;56202.28;;;-142.21;100.00
5053;BME280;2545;50.892;5.740;2023-05-08T02:06:03;56214.06;;;-142.21;100.00
5053;BME280;2545;50.892;5.740;2023-05-08T02:08:29;56217.97;;;-142.21;100.00
5053;BME280;2545;50.892;5.740;2023-05-08T02:10:58;56214.06;;;-142.21;100.00
5053;BME280;2545;50.892;5.740;2023-05-08T02:13:25;56214.06;;;-142.21;100.00
5053;BME280;2545;50.892;5.740;2023-05-08T02:15:53;56170.91;;;-142.21;100.00
5053;BME280;2545;50.892;5.740;2023-05-08T02:18:20;56186.59;;;-142.21;100.00
5053;BME280;2545;50.892;5.740;2023-05-08T02:20:48;56204.25;;;-142.21;100.00
5053;BME280;2545;50.892;5.740;2023-05-08T02:23:19;56210.13;;;-142.21;100.00
5053;BME280;2545;50.892;5.740;2023-05-08T02:25:46;56210.13;;;-142.21;100.00
5053;BME280;2545;50.892;5.740;2023-05-08T02:28:14;56184.66;;;-142.21;100.00
5053;BME280;2545;50.892;5.740;2023-05-08T02:30:40;56184.66;;;-142.21;100.00
5053;BME280;2545;50.892;5.740;2023-05-08T02:33:08;56178.75;;;-142.21;100.00
5053;BME280;2545;50.892;5.740;2023-05-08T02:35:35;56198.38;;;-142.21;100.00
5053;BME280;2545;50.892;5.740;2023-05-08T02:38:04;56174.84;;;-142.21;100.00
5053;BME280;2545;50.892;5.740;2023-05-08T02:40:35;56200.34;;;-142.21;100.00
5053;BME280;2545;50.892;5.740;2023-05-08T02:43:01;56190.53;;;-142.21;100.00
5053;BME280;2545;50.892;5.740;2023-05-08T02:45:32;56180.72;;;-142.21;100.00
5053;BME280;2545;50.892;5.740;2023-05-08T02:48:08;56210.13;;;-142.21;100.00
5053;BME280;2545;50.892;5.740;2023-05-08T02:50:44;56192.50;;;-142.21;100.00
5053;BME280;2545;50.892;5.740;2023-05-08T02:53:18;56186.59;;;-142.21;100.00
5053;BME280;2545;50.892;5.740;2023-05-08T02:55:52;56217.97;;;-142.21;100.00
5053;BME280;2545;50.892;5.740;2023-05-08T02:58:41;56221.91;;;-142.21;100.00
5053;BME280;2545;50.892;5.740;2023-05-08T03:01:26;56198.38;;;-142.21;100.00
5053;BME280;2545;50.892;5.740;2023-05-08T03:04:00;56214.06;;;-142.21;100.00
5053;BME280;2545;50.892;5.740;2023-05-08T03:06:34;56188.56;;;-142.21;100.00
5053;BME280;2545;50.892;5.740;2023-05-08T03:09:01;56202.28;;;-142.21;100.00
5053;BME280;2545;50.892;5.740;2023-05-08T03:11:34;56188.56;;;-142.21;100.00
5053;BME280;2545;50.892;5.740;2023-05-08T03:14:02;56219.94;;;-142.21;100.00
5053;BME280;2545;50.892;5.740;2023-05-08T03:16:31;56194.44;;;-142.21;100.00
5053;BME280;2545;50.892;5.740;2023-05-08T03:19:00;56223.84;;;-142.21;100.00
5053;BME280;2545;50.892;5.740;2023-05-08T03:21:28;56186.59;;;-142.21;100.00
5053;BME280;2545;50.892;5.740;2023-05-08T03:23:56;56210.13;;;-142.21;100.00
5053;BME280;2545;50.892;5.740;2023-05-08T03:26:22;56170.91;;;-142.21;100.00
5053;BME280;2545;50.892;5.740;2023-05-08T03:28:49;56208.16;;;-142.21;100.00
5053;BME280;2545;50.892;5.740;2023-05-08T03:31:18;56186.59;;;-142.21;100.00
5053;BME280;2545;50.892;5.740;2023-05-08T03:33:46;56188.56;;;-142.21;100.00
5053;BME280;2545;50.892;5.740;2023-05-08T03:36:13;56192.50;;;-142.21;100.00
5053;BME280;2545;50.892;5.740;2023-05-08T03:38:38;56198.38;;;-142.21;100.00
5053;BME280;2545;50.892;5.740;2023-05-08T03:41:04;56267.00;;;-142.21;100.00
5053;BME280;2545;50.892;5.740;2023-05-08T03:43:30;56243.47;;;-142.21;100.00
5053;BME280;2545;50.892;5.740;2023-05-08T03:45:56;56241.50;;;-142.21;100.00
5053;BME280;2545;50.892;5.740;2023-05-08T03:48:22;56239.56;;;-142.21;100.00
5053;BME280;2545;50.892;5.740;2023-05-08T03:50:49;56192.50;;;-142.21;100.00
5053;BME280;2545;50.892;5.740;2023-05-08T03:53:14;56231.72;;;-142.21;100.00
5053;BME280;2545;50.892;5.740;2023-05-08T03:55:40;56216.00;;;-142.21;100.00
5053;BME280;2545;50.892;5.740;2023-05-08T03:58:46;56188.56;;;-142.21;100.00
5053;BME280;2545;50.892;5.740;2023-05-08T04:01:22;56176.78;;;-142.21;100.00
5053;BME280;2545;50.892;5.740;2023-05-08T04:04:00;56217.97;;;-142.21;100.00
5053;BME280;2545;50.892;5.740;2023-05-08T04:06:30;56167.00;;;-142.21;100.00
5053;BME280;2545;50.892;5.740;2023-05-08T04:12:20;56216.00;;;-142.21;100.00
5053;BME280;2545;50.892;5.740;2023-05-08T04:14:54;56170.91;;;-142.21;100.00
5053;BME280;2545;50.892;5.740;2023-05-08T04:17:38;56233.66;;;-142.21;100.00
5053;BME280;2545;50.892;5.740;2023-05-08T04:20:06;56198.38;;;-142.21;100.00
5053;BME280;2545;50.892;5.740;2023-05-08T04:22:33;56217.97;;;-142.21;100.00
5053;BME280;2545;50.892;5.740;2023-05-08T04:25:02;56216.00;;;-142.21;100.00
5053;BME280;2545;50.892;5.740;2023-05-08T04:27:28;56247.38;;;-142.21;100.00
5053;BME280;2545;50.892;5.740;2023-05-08T04:29:54;56204.25;;;-142.21;100.00
5053;BME280;2545;50.892;5.740;2023-05-08T04:32:20;56168.97;;;-142.21;100.00
5053;BME280;2545;50.892;5.740;2023-05-08T04:34:46;56202.28;;;-142.21;100.00
5053;BME280;2545;50.892;5.740;2023-05-08T04:37:25;56182.69;;;-142.21;100.00
5053;BME280;2545;50.892;5.740;2023-05-08T04:39:51;56217.97;;;-142.21;100.00
5053;BME280;2545;50.892;5.740;2023-05-08T04:42:17;56184.66;;;-142.21;100.00
5053;BME280;2545;50.892;5.740;2023-05-08T04:44:42;56233.66;;;-142.21;100.00
5053;BME280;2545;50.892;5.740;2023-05-08T04:47:08;56192.50;;;-142.21;100.00
5053;BME280;2545;50.892;5.740;2023-05-08T04:49:33;56196.41;;;-142.21;100.00
5053;BME280;2545;50.892;5.740;2023-05-08T04:51:58;56208.16;;;-142.21;100.00
5053;BME280;2545;50.892;5.740;2023-05-08T04:54:24;56206.22;;;-142.21;100.00
5053;BME280;2545;50.892;5.740;2023-05-08T04:56:49;56176.78;;;-142.21;100.00
5053;BME280;2545;50.892;5.740;2023-05-08T04:59:14;56214.06;;;-142.21;100.00
5053;BME280;2545;50.892;5.740;2023-05-08T05:01:40;56214.06;;;-142.21;100.00
5053;BME280;2545;50.892;5.740;2023-05-08T05:04:05;56204.25;;;-142.21;100.00
5053;BME280;2545;50.892;5.740;2023-05-08T05:06:31;56210.13;;;-142.21;100.00
5053;BME280;2545;50.892;5.740;2023-05-08T05:08:57;56170.91;;;-142.21;100.00
5053;BME280;2545;50.892;5.740;2023-05-08T05:11:22;56202.28;;;-142.21;100.00
5053;BME280;2545;50.892;5.740;2023-05-08T05:13:48;56214.06;;;-142.21;100.00
5053;BME280;2545;50.892;5.740;2023-05-08T05:16:13;56192.50;;;-142.21;100.00
5053;BME280;2545;50.892;5.740;2023-05-08T05:18:39;56188.56;;;-142.21;100.00
5053;BME280;2545;50.892;5.740;2023-05-08T05:21:04;56200.34;;;-142.21;100.00
5053;BME280;2545;50.892;5.740;2023-05-08T05:23:29;56190.53;;;-142.21;100.00
5053;BME280;2545;50.892;5.740;2023-05-08T05:25:55;56174.84;;;-142.21;100.00
5053;BME280;2545;50.892;5.740;2023-05-08T05:28:20;56180.72;;;-142.21;100.00
5053;BME280;2545;50.892;5.740;2023-05-08T05:30:46;56155.22;;;-142.21;100.00
5053;BME280;2545;50.892;5.740;2023-05-08T05:33:12;56196.41;;;-142.21;100.00
5053;BME280;2545;50.892;5.740;2023-05-08T05:35:37;56186.59;;;-142.21;100.00
5053;BME280;2545;50.892;5.740;2023-05-08T05:38:02;56198.38;;;-142.21;100.00
5053;BME280;2545;50.892;5.740;2023-05-08T05:40:28;56176.78;;;-142.21;100.00
5053;BME280;2545;50.892;5.740;2023-05-08T05:42:53;56202.28;;;-142.21;100.00
5053;BME280;2545;50.892;5.740;2023-05-08T05:45:18;56212.09;;;-142.21;100.00
5053;BME280;2545;50.892;5.740;2023-05-08T05:47:45;56210.13;;;-142.21;100.00
5053;BME280;2545;50.892;5.740;2023-05-08T05:50:14;56229.75;;;-142.21;100.00
5053;BME280;2545;50.892;5.740;2023-05-08T05:52:39;56159.16;;;-142.21;100.00
5053;BME280;2545;50.892;5.740;2023-05-08T05:55:05;56180.72;;;-142.21;100.00
5053;BME280;2545;50.892;5.740;2023-05-08T05:57:31;56188.56;;;-142.21;100.00
5053;BME280;2545;50.892;5.740;2023-05-08T05:59:57;56180.72;;;-142.21;100.00
5053;BME280;2545;50.892;5.740;2023-05-08T06:02:23;56259.16;;;-142.21;100.00
5053;BME280;2545;50.892;5.740;2023-05-08T06:04:50;56167.00;;;-142.21;100.00
5053;BME280;2545;50.892;5.740;2023-05-08T06:07:15;56208.16;;;-142.21;100.00
5053;BME280;2545;50.892;5.740;2023-05-08T06:09:41;56216.00;;;-142.21;100.00
5053;BME280;2545;50.892;5.740;2023-05-08T06:12:06;56168.97;;;-142.21;100.00
5053;BME280;2545;50.892;5.740;2023-05-08T06:14:32;56196.41;;;-142.21;100.00
5053;BME280;2545;50.892;5.740;2023-05-08T06:16:58;56200.34;;;-142.21;100.00
5053;BME280;2545;50.892;5.740;2023-05-08T06:19:24;56194.44;;;-142.21;100.00
5053;BME280;2545;50.892;5.740;2023-05-08T06:21:50;56149.34;;;-142.21;100.00
5053;BME280;2545;50.892;5.740;2023-05-08T06:24:16;56210.13;;;-142.21;100.00
5053;BME280;2545;50.892;5.740;2023-05-08T06:26:41;56186.59;;;-142.21;100.00
5053;BME280;2545;50.892;5.740;2023-05-08T06:29:07;56180.72;;;-142.21;100.00
5053;BME280;2545;50.892;5.740;2023-05-08T06:31:32;56198.38;;;-142.21;100.00
5053;BME280;2545;50.892;5.740;2023-05-08T06:33:57;56182.69;;;-142.21;100.00
5053;BME280;2545;50.892;5.740;2023-05-08T06:36:23;56145.44;;;-142.21;100.00
5053;BME280;2545;50.892;5.740;2023-05-08T06:38:48;56170.91;;;-142.21;100.00
5053;BME280;2545;50.892;5.740;2023-05-08T06:41:13;56208.16;;;-142.21;100.00
5053;BME280;2545;50.892;5.740;2023-05-08T06:43:39;56170.91;;;-142.21;100.00
5053;BME280;2545;50.892;5.740;2023-05-08T06:46:04;56180.72;;;-142.21;100.00
5053;BME280;2545;50.892;5.740;2023-05-08T06:48:29;56188.56;;;-142.21;100.00
5053;BME280;2545;50.892;5.740;2023-05-08T06:50:55;56225.81;;;-142.21;100.00
5053;BME280;2545;50.892;5.740;2023-05-08T06:53:20;56225.81;;;-142.21;100.00
5053;BME280;2545;50.892;5.740;2023-05-08T06:55:45;56161.13;;;-142.21;100.00
5053;BME280;2545;50.892;5.740;2023-05-08T06:58:11;56237.59;;;-142.21;100.00
5053;BME280;2545;50.892;5.740;2023-05-08T07:00:36;56206.22;;;-142.21;100.00
5053;BME280;2545;50.892;5.740;2023-05-08T07:03:01;56165.03;;;-142.21;100.00
5053;BME280;2545;50.892;5.740;2023-05-08T07:05:27;56212.09;;;-142.21;100.00
5053;BME280;2545;50.892;5.740;2023-05-08T07:07:52;56202.28;;;-142.21;100.00
5053;BME280;2545;50.892;5.740;2023-05-08T07:10:21;56225.81;;;-142.21;100.00
5053;BME280;2545;50.892;5.740;2023-05-08T07:12:47;56210.13;;;-142.21;100.00
5053;BME280;2545;50.892;5.740;2023-05-08T07:15:13;56216.00;;;-142.21;100.00
5053;BME280;2545;50.892;5.740;2023-05-08T07:17:38;56194.44;;;-142.21;100.00
5053;BME280;2545;50.892;5.740;2023-05-08T07:20:04;56182.69;;;-142.21;100.00
5053;BME280;2545;50.892;5.740;2023-05-08T07:22:30;56182.69;;;-142.21;100.00
5053;BME280;2545;50.892;5.740;2023-05-08T07:24:55;56214.06;;;-142.21;100.00
5053;BME280;2545;50.892;5.740;2023-05-08T07:27:20;56194.44;;;-142.21;100.00
5053;BME280;2545;50.892;5.740;2023-05-08T07:29:45;56198.38;;;-142.21;100.00
5053;BME280;2545;50.892;5.740;2023-05-08T07:32:11;56214.06;;;-142.21;100.00
5053;BME280;2545;50.892;5.740;2023-05-08T07:34:36;56231.72;;;-142.21;100.00
5053;BME280;2545;50.892;5.740;2023-05-08T07:37:02;56202.28;;;-142.21;100.00
5053;BME280;2545;50.892;5.740;2023-05-08T07:39:27;56198.38;;;-142.21;100.00
5053;BME280;2545;50.892;5.740;2023-05-08T07:41:53;56202.28;;;-142.21;100.00
5053;BME280;2545;50.892;5.740;2023-05-08T07:44:18;56178.75;;;-142.21;100.00
5053;BME280;2545;50.892;5.740;2023-05-08T07:46:43;56182.69;;;-142.21;100.00
5053;BME280;2545;50.892;5.740;2023-05-08T07:49:09;56227.78;;;-142.21;100.00
5053;BME280;2545;50.892;5.740;2023-05-08T07:51:35;56206.22;;;-142.21;100.00
5053;BME280;2545;50.892;5.740;2023-05-08T07:54:00;56182.69;;;-142.21;100.00
5053;BME280;2545;50.892;5.740;2023-05-08T07:56:26;56190.53;;;-142.21;100.00
5053;BME280;2545;50.892;5.740;2023-05-08T07:58:52;56168.97;;;-142.21;100.00
5053;BME280;2545;50.892;5.740;2023-05-08T08:01:18;56165.03;;;-142.21;100.00
5053;BME280;2545;50.892;5.740;2023-05-08T08:03:46;56163.06;;;-142.21;100.00
5053;BME280;2545;50.892;5.740;2023-05-08T08:06:12;56196.41;;;-142.21;100.00
5053;BME280;2545;50.892;5.740;2023-05-08T08:08:37;56180.72;;;-142.21;100.00
5053;BME280;2545;50.892;5.740;2023-05-08T08:11:03;56145.44;;;-142.21;100.00
5053;BME280;2545;50.892;5.740;2023-05-08T08:13:29;56190.53;;;-142.21;100.00
5053;BME280;2545;50.892;5.740;2023-05-08T08:15:54;56163.06;;;-142.21;100.00
5053;BME280;2545;50.892;5.740;2023-05-08T08:18:19;56192.50;;;-142.21;100.00
5053;BME280;2545;50.892;5.740;2023-05-08T08:20:44;56159.16;;;-142.21;100.00
5053;BME280;2545;50.892;5.740;2023-05-08T08:23:10;56186.59;;;-142.21;100.00
5053;BME280;2545;50.892;5.740;2023-05-08T08:25:35;56147.38;;;-142.21;100.00
5053;BME280;2545;50.892;5.740;2023-05-08T08:28:00;56204.25;;;-142.21;100.00
5053;BME280;2545;50.892;5.740;2023-05-08T08:30:26;56170.91;;;-142.21;97.55
5053;BME280;2545;50.892;5.740;2023-05-08T08:32:51;56182.69;;;-142.21;99.44
5053;BME280;2545;50.892;5.740;2023-05-08T08:35:16;56196.41;;;-142.21;94.42
5053;BME280;2545;50.892;5.740;2023-05-08T08:37:42;56133.66;;;-142.21;96.28
5053;BME280;2545;50.892;5.740;2023-05-08T08:40:07;56165.03;;;-142.21;92.63
5053;BME280;2545;50.892;5.740;2023-05-08T08:42:33;56147.38;;;-142.21;93.05
5053;BME280;2545;50.892;5.740;2023-05-08T08:44:59;56145.44;;;-142.21;92.01
5053;BME280;2545;50.892;5.740;2023-05-08T08:47:30;56167.00;;;-142.21;91.15
5053;BME280;2545;50.892;5.740;2023-05-08T08:50:01;56141.50;;;-142.21;92.27
5053;BME280;2545;50.892;5.740;2023-05-08T08:55:01;56139.53;;;-142.21;89.44
5053;BME280;2545;50.892;5.740;2023-05-08T08:57:31;56178.75;;;-142.21;87.98
5053;BME280;2545;50.892;5.740;2023-05-08T09:00:00;56151.31;;;-142.21;89.64
5053;BME280;2545;50.892;5.740;2023-05-08T09:02:30;56180.72;;;-142.21;88.28
5053;BME280;2545;50.892;5.740;2023-05-08T09:04:56;56149.34;;;-142.21;89.91
5053;BME280;2545;50.892;5.740;2023-05-08T09:07:22;56141.50;;;-142.21;88.23
5053;BME280;2545;50.892;5.740;2023-05-08T09:09:49;56170.91;;;-142.21;88.24
5053;BME280;2545;50.892;5.740;2023-05-08T09:12:14;56143.47;;;-142.21;83.12
5053;BME280;2545;50.892;5.740;2023-05-08T09:14:40;56151.31;;;-142.21;82.56
5053;BME280;2545;50.892;5.740;2023-05-08T09:17:05;56153.28;;;-142.21;84.61
5053;BME280;2545;50.892;5.740;2023-05-08T09:19:32;56123.84;;;-142.21;80.91
5053;BME280;2545;50.892;5.740;2023-05-08T09:22:02;56131.69;;;-142.21;81.56
5053;BME280;2545;50.892;5.740;2023-05-08T09:27:21;56180.72;;;-142.21;79.73
5053;BME280;2545;50.892;5.740;2023-05-08T09:32:23;56117.97;;;-142.21;82.35
5053;BME280;2545;50.892;5.740;2023-05-08T09:34:51;56147.38;;;-142.21;81.69
5053;BME280;2545;50.892;5.740;2023-05-08T09:37:17;56139.53;;;-142.21;78.31
5053;BME280;2545;50.892;5.740;2023-05-08T09:39:43;56127.78;;;-142.21;76.19
5053;BME280;2545;50.892;5.740;2023-05-08T09:42:11;56131.69;;;-142.21;75.57
5053;BME280;2545;50.892;5.740;2023-05-08T09:47:16;56135.63;;;-142.21;80.03
5053;BME280;2545;50.892;5.740;2023-05-08T09:50:01;56167.00;;;-142.21;80.90
5053;BME280;2545;50.892;5.740;2023-05-08T09:52:27;56153.28;;;-142.21;78.66
5053;BME280;2545;50.892;5.740;2023-05-08T09:55:04;56133.66;;;-142.21;80.37
5053;BME280;2545;50.892;5.740;2023-05-08T09:57:32;56135.63;;;-142.21;80.66
5053;BME280;2545;50.892;5.740;2023-05-08T10:00:08;56180.72;;;-142.21;82.00
5053;BME280;2545;50.892;5.740;2023-05-08T10:02:35;56129.75;;;-142.21;83.92
5053;BME280;2545;50.892;5.740;2023-05-08T10:05:04;56135.63;;;-142.21;79.24
5053;BME280;2545;50.892;5.740;2023-05-08T10:07:46;56168.97;;;-142.21;78.86
5053;BME280;2545;50.892;5.740;2023-05-08T10:10:12;56129.75;;;-142.21;76.85
5053;BME280;2545;50.892;5.740;2023-05-08T10:12:39;56123.84;;;-142.21;76.23
5053;BME280;2545;50.892;5.740;2023-05-08T10:15:06;56180.72;;;-142.21;77.29
5053;BME280;2545;50.892;5.740;2023-05-08T10:17:43;56153.28;;;-142.21;76.17
5053;BME280;2545;50.892;5.740;2023-05-08T10:20:13;56131.69;;;-142.21;76.23
5053;BME280;2545;50.892;5.740;2023-05-08T10:22:42;56123.84;;;-142.21;77.29
5053;BME280;2545;50.892;5.740;2023-05-08T10:25:13;56147.38;;;-142.21;78.28
5053;BME280;2545;50.892;5.740;2023-05-08T10:27:44;56139.53;;;-142.21;76.69
5053;BME280;2545;50.892;5.740;2023-05-08T10:30:12;56159.16;;;-142.21;76.21
5053;BME280;2545;50.892;5.740;2023-05-08T10:32:43;56127.78;;;-142.21;74.94
5053;BME280;2545;50.892;5.740;2023-05-08T10:35:10;56149.34;;;-142.21;74.48
5053;BME280;2545;50.892;5.740;2023-05-08T10:37:37;56145.44;;;-142.21;71.28
5053;BME280;2545;50.892;5.740;2023-05-08T10:40:04;56147.38;;;-142.21;68.99
5053;BME280;2545;50.892;5.740;2023-05-08T10:42:32;56121.91;;;-142.21;68.10
5053;BME280;2545;50.892;5.740;2023-05-08T10:44:58;56165.03;;;-142.21;68.17
5053;BME280;2545;50.892;5.740;2023-05-08T10:48:28;56151.31;;;-142.21;66.18
5053;BME280;2545;50.892;5.740;2023-05-08T10:50:41;56121.91;;;-142.21;66.27
5053;BME280;2545;50.892;5.740;2023-05-08T10:55:58;56116.00;;;-142.21;62.48
5053;BME280;2545;50.892;5.740;2023-05-08T10:58:35;56133.66;;;-142.21;64.29
5053;BME280;2545;50.892;5.740;2023-05-08T11:03:32;56135.63;;;-142.21;63.08
5053;BME280;2545;50.892;5.740;2023-05-08T11:05:58;56123.84;;;-142.21;61.27
5053;BME280;2545;50.892;5.740;2023-05-08T11:08:28;56090.53;;;-142.21;60.74
5053;BME280;2545;50.892;5.740;2023-05-08T11:13:47;56098.38;;;-142.21;57.55
5053;BME280;2545;50.892;5.740;2023-05-08T11:16:14;56100.31;;;-142.21;57.21
5053;BME280;2545;50.892;5.740;2023-05-08T11:19:17;56133.66;;;-142.21;55.31
5053;BME280;2545;50.892;5.740;2023-05-08T11:24:36;56059.16;;;-142.21;51.25
5053;BME280;2545;50.892;5.740;2023-05-08T11:27:02;56068.94;;;-142.21;52.75
5053;BME280;2545;50.892;5.740;2023-05-08T11:29:28;56076.78;;;-142.21;51.08
5053;BME280;2545;50.892;5.740;2023-05-08T11:31:53;56088.56;;;-142.21;51.00
5053;BME280;2545;50.892;5.740;2023-05-08T11:37:09;56017.97;;;-142.21;46.96
5053;BME280;2545;50.892;5.740;2023-05-08T11:39:35;56000.31;;;-142.21;43.64
5053;BME280;2545;50.892;5.740;2023-05-08T11:47:45;56029.72;;;-142.21;43.64
5053;BME280;2545;50.892;5.740;2023-05-08T11:50:11;56067.00;;;-142.21;45.91
5053;BME280;2545;50.892;5.740;2023-05-08T11:52:39;56057.19;;;-142.21;45.10
5053;BME280;2545;50.892;5.740;2023-05-08T11:55:06;56047.38;;;-142.21;44.62
5053;BME280;2545;50.892;5.740;2023-05-08T11:57:32;56055.22;;;-142.21;44.48
5053;BME280;2545;50.892;5.740;2023-05-08T12:00:04;56061.09;;;-142.21;42.68
5053;BME280;2545;50.892;5.740;2023-05-08T12:02:40;56053.25;;;-142.21;43.07
5053;BME280;2545;50.892;5.740;2023-05-08T12:05:07;56012.09;;;-142.21;41.17
5053;BME280;2545;50.892;5.740;2023-05-08T12:07:32;56002.28;;;-142.21;41.79
5053;BME280;2545;50.892;5.740;2023-05-08T12:10:06;56043.47;;;-142.21;41.53
5053;BME280;2545;50.892;5.740;2023-05-08T12:12:39;56047.38;;;-142.21;41.38
5053;BME280;2545;50.892;5.740;2023-05-08T12:15:14;56014.06;;;-142.21;42.41
5053;BME280;2545;50.892;5.740;2023-05-08T12:17:40;56014.06;;;-142.21;43.36
5053;BME280;2545;50.892;5.740;2023-05-08T12:20:13;56037.56;;;-142.21;42.82
5053;BME280;2545;50.892;5.740;2023-05-08T12:22:40;56017.97;;;-142.21;41.66
5053;BME280;2545;50.892;5.740;2023-05-08T12:25:07;56012.09;;;-142.21;40.85
5053;BME280;2545;50.892;5.740;2023-05-08T12:27:35;56049.34;;;-142.21;40.29
5053;BME280;2545;50.892;5.740;2023-05-08T12:30:05;56025.81;;;-142.21;40.03
5053;BME280;2545;50.892;5.740;2023-05-08T12:32:31;56012.09;;;-142.21;38.85
5053;BME280;2545;50.892;5.740;2023-05-08T12:34:59;55998.38;;;-142.21;38.49
5053;BME280;2545;50.892;5.740;2023-05-08T12:37:27;55967.00;;;-142.21;38.24
5053;BME280;2545;50.892;5.740;2023-05-08T12:39:53;55984.63;;;-142.21;38.31
5053;BME280;2545;50.892;5.740;2023-05-08T12:42:18;56010.13;;;-142.21;38.85
5053;BME280;2545;50.892;5.740;2023-05-08T12:44:51;55992.47;;;-142.21;37.83
5053;BME280;2545;50.892;5.740;2023-05-08T12:47:19;56017.97;;;-142.21;39.85
5053;BME280;2545;50.892;5.740;2023-05-08T12:49:46;56047.38;;;-142.21;38.73
5053;BME280;2545;50.892;5.740;2023-05-08T12:52:14;55984.63;;;-142.21;38.32
5053;BME280;2545;50.892;5.740;2023-05-08T12:54:46;56006.22;;;-142.21;39.30
5053;BME280;2545;50.892;5.740;2023-05-08T12:57:17;56002.28;;;-142.21;38.79
5053;BME280;2545;50.892;5.740;2023-05-08T12:59:44;55965.03;;;-142.21;38.25
5053;BME280;2545;50.892;5.740;2023-05-08T13:02:14;55988.56;;;-142.21;38.22
5053;BME280;2545;50.892;5.740;2023-05-08T13:04:40;55996.41;;;-142.21;37.36
5053;BME280;2545;50.892;5.740;2023-05-08T13:07:05;55974.84;;;-142.21;37.00
5053;BME280;2545;50.892;5.740;2023-05-08T13:09:31;55984.63;;;-142.21;36.47
5053;BME280;2545;50.892;5.740;2023-05-08T13:11:56;56014.06;;;-142.21;35.58
5053;BME280;2545;50.892;5.740;2023-05-08T13:14:21;56031.69;;;-142.21;36.83
5053;BME280;2545;50.892;5.740;2023-05-08T13:16:47;56047.38;;;-142.21;37.07
5053;BME280;2545;50.892;5.740;2023-05-08T13:19:13;56031.69;;;-142.21;38.60
5053;BME280;2545;50.892;5.740;2023-05-08T13:21:42;56072.88;;;-142.21;39.41
5053;BME280;2545;50.892;5.740;2023-05-08T13:24:11;56012.09;;;-142.21;38.83
5053;BME280;2545;50.892;5.740;2023-05-08T13:26:36;56021.88;;;-142.21;38.36
5053;BME280;2545;50.892;5.740;2023-05-08T13:29:02;55990.53;;;-142.21;37.12
5053;BME280;2545;50.892;5.740;2023-05-08T13:31:27;55963.06;;;-142.21;36.75
5053;BME280;2545;50.892;5.740;2023-05-08T13:33:52;55959.16;;;-142.21;36.72
5053;BME280;2545;50.892;5.740;2023-05-08T13:36:17;55982.69;;;-142.21;36.70
5053;BME280;2545;50.892;5.740;2023-05-08T13:38:44;55974.84;;;-142.21;35.16
5053;BME280;2545;50.892;5.740;2023-05-08T13:41:10;55959.16;;;-142.21;34.08
5053;BME280;2545;50.892;5.740;2023-05-08T13:43:35;56014.06;;;-142.21;34.53